sensor_id;sensor_type;location;lat;lon;timestamp;P1;durP1;ratioP1;P2;durP2;ratioP2
16286;SDS011;8251;53.568;10.018;2022-12-07T00:01:17;10.23;;;7.77;;
16286;SDS011;8251;53.568;10.018;2022-12-07T00:03:47;15.80;;;7.77;;
16286;SDS011;8251;53.568;10.018;2022-12-07T00:06:15;14.67;;;8.90;;
16286;SDS011;8251;53.568;10.018;2022-12-07T00:08:43;10.50;;;7.27;;
16286;SDS011;8251;53.568;10.018;2022-12-07T00:11:12;15.10;;;9.13;;
16286;SDS011;8251;53.568;10.018;2022-12-07T00:13:41;14.73;;;8.07;;
16286;SDS011;8251;53.568;10.018;2022-12-07T00:16:09;14.10;;;7.97;;
16286;SDS011;8251;53.568;10.018;2022-12-07T00:18:37;13.30;;;8.00;;
16286;SDS011;8251;53.568;10.018;2022-12-07T00:21:07;11.27;;;7.37;;
16286;SDS011;8251;53.568;10.018;2022-12-07T00:23:35;12.10;;;8.17;;
16286;SDS011;8251;53.568;10.018;2022-12-07T00:26:03;14.43;;;7.80;;
16286;SDS011;8251;53.568;10.018;2022-12-07T00:28:31;14.27;;;7.57;;
16286;SDS011;8251;53.568;10.018;2022-12-07T00:30:59;12.40;;;7.70;;
16286;SDS011;8251;53.568;10.018;2022-12-07T00:33:28;11.53;;;7.80;;
16286;SDS011;8251;53.568;10.018;2022-12-07T00:35:55;10.43;;;6.40;;
16286;SDS011;8251;53.568;10.018;2022-12-07T00:38:24;12.53;;;8.03;;
16286;SDS011;8251;53.568;10.018;2022-12-07T00:40:54;15.00;;;8.13;;
16286;SDS011;8251;53.568;10.018;2022-12-07T00:43:22;14.37;;;7.53;;
16286;SDS011;8251;53.568;10.018;2022-12-07T00:45:48;15.27;;;8.57;;
16286;SDS011;8251;53.568;10.018;2022-12-07T00:48:15;12.43;;;6.93;;
16286;SDS011;8251;53.568;10.018;2022-12-07T00:50:43;11.80;;;7.00;;
16286;SDS011;8251;53.568;10.018;2022-12-07T00:53:09;14.13;;;7.67;;
16286;SDS011;8251;53.568;10.018;2022-12-07T00:55:38;11.40;;;6.97;;
16286;SDS011;8251;53.568;10.018;2022-12-07T00:58:05;15.73;;;7.63;;
16286;SDS011;8251;53.568;10.018;2022-12-07T01:00:32;12.10;;;6.17;;
16286;SDS011;8251;53.568;10.018;2022-12-07T01:03:01;10.73;;;7.50;;
16286;SDS011;8251;53.568;10.018;2022-12-07T01:05:28;11.37;;;6.50;;
16286;SDS011;8251;53.568;10.018;2022-12-07T01:07:55;9.77;;;6.23;;
16286;SDS011;8251;53.568;10.018;2022-12-07T01:10:22;11.07;;;5.73;;
16286;SDS011;8251;53.568;10.018;2022-12-07T01:12:50;14.73;;;6.07;;
16286;SDS011;8251;53.568;10.018;2022-12-07T01:15:17;10.00;;;5.40;;
16286;SDS011;8251;53.568;10.018;2022-12-07T01:17:44;9.37;;;5.73;;
16286;SDS011;8251;53.568;10.018;2022-12-07T01:20:12;7.80;;;5.47;;
16286;SDS011;8251;53.568;10.018;2022-12-07T01:22:40;8.63;;;5.57;;
16286;SDS011;8251;53.568;10.018;2022-12-07T01:25:09;11.43;;;5.63;;
16286;SDS011;8251;53.568;10.018;2022-12-07T01:27:37;8.57;;;5.57;;
16286;SDS011;8251;53.568;10.018;2022-12-07T01:30:06;10.50;;;5.40;;
16286;SDS011;8251;53.568;10.018;2022-12-07T01:32:34;7.60;;;4.87;;
16286;SDS011;8251;53.568;10.018;2022-12-07T01:35:01;10.43;;;6.50;;
16286;SDS011;8251;53.568;10.018;2022-12-07T01:37:28;11.37;;;6.07;;
16286;SDS011;8251;53.568;10.018;2022-12-07T01:39:59;8.90;;;5.70;;
16286;SDS011;8251;53.568;10.018;2022-12-07T01:42:26;10.70;;;5.77;;
16286;SDS011;8251;53.568;10.018;2022-12-07T01:48:05;13.40;;;6.57;;
16286;SDS011;8251;53.568;10.018;2022-12-07T01:50:35;9.23;;;5.60;;
16286;SDS011;8251;53.568;10.018;2022-12-07T01:53:03;8.13;;;5.30;;
16286;SDS011;8251;53.568;10.018;2022-12-07T01:55:32;10.80;;;5.73;;
16286;SDS011;8251;53.568;10.018;2022-12-07T01:58:03;9.87;;;6.37;;
16286;SDS011;8251;53.568;10.018;2022-12-07T02:00:30;7.47;;;5.37;;
16286;SDS011;8251;53.568;10.018;2022-12-07T02:02:59;13.20;;;6.40;;
16286;SDS011;8251;53.568;10.018;2022-12-07T02:05:32;10.90;;;5.93;;
16286;SDS011;8251;53.568;10.018;2022-12-07T02:08:01;9.93;;;5.90;;
16286;SDS011;8251;53.568;10.018;2022-12-07T02:10:31;11.23;;;5.67;;
16286;SDS011;8251;53.568;10.018;2022-12-07T02:12:59;9.00;;;5.73;;
16286;SDS011;8251;53.568;10.018;2022-12-07T02:15:34;11.20;;;4.97;;
16286;SDS011;8251;53.568;10.018;2022-12-07T02:18:13;6.83;;;4.73;;
16286;SDS011;8251;53.568;10.018;2022-12-07T02:20:49;10.43;;;4.60;;
16286;SDS011;8251;53.568;10.018;2022-12-07T02:23:29;7.33;;;4.90;;
16286;SDS011;8251;53.568;10.018;2022-12-07T02:29:12;10.03;;;4.57;;
16286;SDS011;8251;53.568;10.018;2022-12-07T02:31:45;7.83;;;4.37;;
16286;SDS011;8251;53.568;10.018;2022-12-07T02:34:19;6.33;;;3.70;;
16286;SDS011;8251;53.568;10.018;2022-12-07T02:36:53;9.70;;;5.33;;
16286;SDS011;8251;53.568;10.018;2022-12-07T02:39:28;6.53;;;4.10;;
16286;SDS011;8251;53.568;10.018;2022-12-07T02:42:06;5.40;;;3.47;;
16286;SDS011;8251;53.568;10.018;2022-12-07T02:44:41;6.47;;;3.10;;
16286;SDS011;8251;53.568;10.018;2022-12-07T02:47:10;5.53;;;2.40;;
16286;SDS011;8251;53.568;10.018;2022-12-07T02:49:40;6.20;;;3.00;;
16286;SDS011;8251;53.568;10.018;2022-12-07T02:52:08;7.30;;;2.23;;
16286;SDS011;8251;53.568;10.018;2022-12-07T02:54:35;4.57;;;2.40;;
16286;SDS011;8251;53.568;10.018;2022-12-07T02:57:03;4.77;;;2.20;;
16286;SDS011;8251;53.568;10.018;2022-12-07T02:59:40;4.20;;;2.27;;
16286;SDS011;8251;53.568;10.018;2022-12-07T03:02:20;3.83;;;2.30;;
16286;SDS011;8251;53.568;10.018;2022-12-07T03:04:55;8.63;;;2.27;;
16286;SDS011;8251;53.568;10.018;2022-12-07T03:07:37;2.90;;;1.63;;
16286;SDS011;8251;53.568;10.018;2022-12-07T03:10:14;5.20;;;2.10;;
16286;SDS011;8251;53.568;10.018;2022-12-07T03:12:49;4.63;;;1.63;;
16286;SDS011;8251;53.568;10.018;2022-12-07T03:15:29;2.40;;;1.60;;
16286;SDS011;8251;53.568;10.018;2022-12-07T03:18:00;3.30;;;1.73;;
16286;SDS011;8251;53.568;10.018;2022-12-07T03:20:29;3.70;;;1.50;;
16286;SDS011;8251;53.568;10.018;2022-12-07T03:22:58;4.23;;;1.73;;
16286;SDS011;8251;53.568;10.018;2022-12-07T03:25:26;4.10;;;1.50;;
16286;SDS011;8251;53.568;10.018;2022-12-07T03:27:54;3.27;;;2.13;;
16286;SDS011;8251;53.568;10.018;2022-12-07T03:30:24;4.20;;;1.43;;
16286;SDS011;8251;53.568;10.018;2022-12-07T03:32:58;2.13;;;1.30;;
16286;SDS011;8251;53.568;10.018;2022-12-07T03:35:30;1.53;;;1.07;;
16286;SDS011;8251;53.568;10.018;2022-12-07T03:38:02;3.90;;;1.50;;
16286;SDS011;8251;53.568;10.018;2022-12-07T03:40:35;2.70;;;1.50;;
16286;SDS011;8251;53.568;10.018;2022-12-07T03:43:06;2.77;;;1.60;;
16286;SDS011;8251;53.568;10.018;2022-12-07T03:45:37;2.50;;;0.97;;
16286;SDS011;8251;53.568;10.018;2022-12-07T03:48:07;3.10;;;0.70;;
16286;SDS011;8251;53.568;10.018;2022-12-07T03:50:41;3.30;;;1.03;;
16286;SDS011;8251;53.568;10.018;2022-12-07T03:53:15;6.33;;;1.37;;
16286;SDS011;8251;53.568;10.018;2022-12-07T03:55:46;3.60;;;1.27;;
16286;SDS011;8251;53.568;10.018;2022-12-07T03:58:16;1.60;;;0.80;;
16286;SDS011;8251;53.568;10.018;2022-12-07T04:00:47;2.47;;;1.00;;
16286;SDS011;8251;53.568;10.018;2022-12-07T04:03:16;1.33;;;1.00;;
16286;SDS011;8251;53.568;10.018;2022-12-07T04:05:43;7.73;;;0.90;;
16286;SDS011;8251;53.568;10.018;2022-12-07T04:08:11;4.33;;;1.00;;
16286;SDS011;8251;53.568;10.018;2022-12-07T04:10:38;5.07;;;1.10;;
16286;SDS011;8251;53.568;10.018;2022-12-07T04:13:05;1.60;;;1.00;;
16286;SDS011;8251;53.568;10.018;2022-12-07T04:15:31;5.93;;;1.27;;
16286;SDS011;8251;53.568;10.018;2022-12-07T04:18:00;1.23;;;0.90;;
16286;SDS011;8251;53.568;10.018;2022-12-07T04:20:26;3.40;;;1.00;;
16286;SDS011;8251;53.568;10.018;2022-12-07T04:22:54;2.00;;;0.90;;
16286;SDS011;8251;53.568;10.018;2022-12-07T04:25:21;2.50;;;0.80;;
16286;SDS011;8251;53.568;10.018;2022-12-07T04:27:47;2.37;;;1.13;;
16286;SDS011;8251;53.568;10.018;2022-12-07T04:30:14;5.67;;;1.43;;
16286;SDS011;8251;53.568;10.018;2022-12-07T04:32:41;2.40;;;1.00;;
16286;SDS011;8251;53.568;10.018;2022-12-07T04:35:10;4.27;;;1.33;;
16286;SDS011;8251;53.568;10.018;2022-12-07T04:37:36;1.60;;;1.20;;
16286;SDS011;8251;53.568;10.018;2022-12-07T04:40:05;4.93;;;1.23;;
16286;SDS011;8251;53.568;10.018;2022-12-07T04:42:35;2.37;;;1.27;;
16286;SDS011;8251;53.568;10.018;2022-12-07T04:45:02;3.83;;;1.50;;
16286;SDS011;8251;53.568;10.018;2022-12-07T04:47:29;3.53;;;1.27;;
16286;SDS011;8251;53.568;10.018;2022-12-07T04:49:56;5.50;;;1.40;;
16286;SDS011;8251;53.568;10.018;2022-12-07T04:52:25;4.20;;;1.50;;
16286;SDS011;8251;53.568;10.018;2022-12-07T04:54:51;3.53;;;1.10;;
16286;SDS011;8251;53.568;10.018;2022-12-07T04:57:18;1.73;;;1.47;;
16286;SDS011;8251;53.568;10.018;2022-12-07T04:59:45;2.37;;;1.40;;
16286;SDS011;8251;53.568;10.018;2022-12-07T05:02:12;6.13;;;1.40;;
16286;SDS011;8251;53.568;10.018;2022-12-07T05:04:39;2.17;;;1.10;;
16286;SDS011;8251;53.568;10.018;2022-12-07T05:07:06;2.20;;;1.30;;
16286;SDS011;8251;53.568;10.018;2022-12-07T05:09:34;5.93;;;1.67;;
16286;SDS011;8251;53.568;10.018;2022-12-07T05:12:01;2.20;;;1.23;;
16286;SDS011;8251;53.568;10.018;2022-12-07T05:14:28;4.23;;;1.43;;
16286;SDS011;8251;53.568;10.018;2022-12-07T05:16:55;4.47;;;1.33;;
16286;SDS011;8251;53.568;10.018;2022-12-07T05:19:22;2.30;;;1.50;;
16286;SDS011;8251;53.568;10.018;2022-12-07T05:21:49;4.73;;;1.63;;
16286;SDS011;8251;53.568;10.018;2022-12-07T05:24:16;3.13;;;1.73;;
16286;SDS011;8251;53.568;10.018;2022-12-07T05:26:45;2.20;;;1.50;;
16286;SDS011;8251;53.568;10.018;2022-12-07T05:29:15;1.50;;;1.33;;
16286;SDS011;8251;53.568;10.018;2022-12-07T05:31:43;2.23;;;1.37;;
16286;SDS011;8251;53.568;10.018;2022-12-07T05:34:10;6.17;;;2.27;;
16286;SDS011;8251;53.568;10.018;2022-12-07T05:36:39;4.87;;;1.90;;
16286;SDS011;8251;53.568;10.018;2022-12-07T05:39:10;4.87;;;1.77;;
16286;SDS011;8251;53.568;10.018;2022-12-07T05:41:42;2.77;;;1.43;;
16286;SDS011;8251;53.568;10.018;2022-12-07T05:44:27;2.17;;;1.47;;
16286;SDS011;8251;53.568;10.018;2022-12-07T05:46:54;3.90;;;1.60;;
16286;SDS011;8251;53.568;10.018;2022-12-07T05:49:22;2.43;;;1.80;;
16286;SDS011;8251;53.568;10.018;2022-12-07T05:51:48;4.53;;;1.90;;
16286;SDS011;8251;53.568;10.018;2022-12-07T05:54:15;2.97;;;1.67;;
16286;SDS011;8251;53.568;10.018;2022-12-07T05:56:42;2.67;;;1.80;;
16286;SDS011;8251;53.568;10.018;2022-12-07T05:59:09;2.07;;;1.30;;
16286;SDS011;8251;53.568;10.018;2022-12-07T06:01:48;3.60;;;1.60;;
16286;SDS011;8251;53.568;10.018;2022-12-07T06:04:15;3.17;;;1.60;;
16286;SDS011;8251;53.568;10.018;2022-12-07T06:06:42;2.03;;;1.50;;
16286;SDS011;8251;53.568;10.018;2022-12-07T06:09:09;1.50;;;1.40;;
16286;SDS011;8251;53.568;10.018;2022-12-07T06:11:37;5.87;;;1.93;;
16286;SDS011;8251;53.568;10.018;2022-12-07T06:14:21;9.80;;;1.57;;
16286;SDS011;8251;53.568;10.018;2022-12-07T06:16:50;5.67;;;2.23;;
16286;SDS011;8251;53.568;10.018;2022-12-07T06:19:18;4.53;;;2.03;;
16286;SDS011;8251;53.568;10.018;2022-12-07T06:21:52;6.77;;;2.10;;
16286;SDS011;8251;53.568;10.018;2022-12-07T06:24:24;4.30;;;1.80;;
16286;SDS011;8251;53.568;10.018;2022-12-07T06:26:51;2.77;;;1.77;;
16286;SDS011;8251;53.568;10.018;2022-12-07T06:29:18;3.10;;;1.97;;
16286;SDS011;8251;53.568;10.018;2022-12-07T06:31:45;2.20;;;1.57;;
16286;SDS011;8251;53.568;10.018;2022-12-07T06:34:15;4.10;;;1.73;;
16286;SDS011;8251;53.568;10.018;2022-12-07T06:36:43;3.33;;;1.60;;
16286;SDS011;8251;53.568;10.018;2022-12-07T06:39:12;5.57;;;1.73;;
16286;SDS011;8251;53.568;10.018;2022-12-07T06:41:39;4.43;;;1.80;;
16286;SDS011;8251;53.568;10.018;2022-12-07T06:44:06;4.73;;;1.53;;
16286;SDS011;8251;53.568;10.018;2022-12-07T06:46:33;2.87;;;1.50;;
16286;SDS011;8251;53.568;10.018;2022-12-07T06:49:01;3.80;;;1.27;;
16286;SDS011;8251;53.568;10.018;2022-12-07T06:51:30;9.40;;;1.50;;
16286;SDS011;8251;53.568;10.018;2022-12-07T06:53:57;4.47;;;2.40;;
16286;SDS011;8251;53.568;10.018;2022-12-07T06:56:24;7.20;;;1.47;;
16286;SDS011;8251;53.568;10.018;2022-12-07T06:58:52;5.37;;;1.50;;
16286;SDS011;8251;53.568;10.018;2022-12-07T07:01:19;3.03;;;1.53;;
16286;SDS011;8251;53.568;10.018;2022-12-07T07:03:46;3.37;;;1.40;;
16286;SDS011;8251;53.568;10.018;2022-12-07T07:06:13;4.60;;;1.30;;
16286;SDS011;8251;53.568;10.018;2022-12-07T07:08:42;1.80;;;1.57;;
16286;SDS011;8251;53.568;10.018;2022-12-07T07:11:09;3.93;;;1.47;;
16286;SDS011;8251;53.568;10.018;2022-12-07T07:13:36;2.97;;;1.47;;
16286;SDS011;8251;53.568;10.018;2022-12-07T07:16:04;6.43;;;1.37;;
16286;SDS011;8251;53.568;10.018;2022-12-07T07:18:33;5.23;;;1.40;;
16286;SDS011;8251;53.568;10.018;2022-12-07T07:21:00;3.97;;;2.07;;
16286;SDS011;8251;53.568;10.018;2022-12-07T07:23:27;1.73;;;1.30;;
16286;SDS011;8251;53.568;10.018;2022-12-07T07:25:55;6.37;;;1.60;;
16286;SDS011;8251;53.568;10.018;2022-12-07T07:28:23;6.03;;;1.70;;
16286;SDS011;8251;53.568;10.018;2022-12-07T07:30:50;3.13;;;1.30;;
16286;SDS011;8251;53.568;10.018;2022-12-07T07:33:17;2.10;;;1.00;;
16286;SDS011;8251;53.568;10.018;2022-12-07T07:35:44;3.73;;;1.30;;
16286;SDS011;8251;53.568;10.018;2022-12-07T07:38:15;2.13;;;1.20;;
16286;SDS011;8251;53.568;10.018;2022-12-07T07:40:42;6.00;;;1.40;;
16286;SDS011;8251;53.568;10.018;2022-12-07T07:43:10;2.93;;;1.70;;
16286;SDS011;8251;53.568;10.018;2022-12-07T07:45:37;7.57;;;1.70;;
16286;SDS011;8251;53.568;10.018;2022-12-07T07:48:04;2.63;;;1.47;;
16286;SDS011;8251;53.568;10.018;2022-12-07T07:50:31;5.07;;;1.40;;
16286;SDS011;8251;53.568;10.018;2022-12-07T07:52:59;5.40;;;1.63;;
16286;SDS011;8251;53.568;10.018;2022-12-07T07:55:25;7.80;;;1.67;;
16286;SDS011;8251;53.568;10.018;2022-12-07T07:57:53;2.27;;;1.10;;
16286;SDS011;8251;53.568;10.018;2022-12-07T08:00:22;4.03;;;1.23;;
16286;SDS011;8251;53.568;10.018;2022-12-07T08:02:49;3.03;;;1.30;;
16286;SDS011;8251;53.568;10.018;2022-12-07T08:05:16;8.10;;;1.10;;
16286;SDS011;8251;53.568;10.018;2022-12-07T08:07:43;2.37;;;1.50;;
16286;SDS011;8251;53.568;10.018;2022-12-07T08:10:11;6.57;;;1.90;;
16286;SDS011;8251;53.568;10.018;2022-12-07T08:12:40;6.03;;;1.20;;
16286;SDS011;8251;53.568;10.018;2022-12-07T08:15:23;3.47;;;1.13;;
16286;SDS011;8251;53.568;10.018;2022-12-07T08:17:51;6.40;;;1.30;;
16286;SDS011;8251;53.568;10.018;2022-12-07T08:20:18;2.40;;;1.00;;
16286;SDS011;8251;53.568;10.018;2022-12-07T08:22:46;3.37;;;1.23;;
16286;SDS011;8251;53.568;10.018;2022-12-07T08:25:13;3.03;;;1.03;;
16286;SDS011;8251;53.568;10.018;2022-12-07T08:27:40;2.90;;;1.03;;
16286;SDS011;8251;53.568;10.018;2022-12-07T08:30:07;4.40;;;1.23;;
16286;SDS011;8251;53.568;10.018;2022-12-07T08:32:36;1.73;;;1.00;;
16286;SDS011;8251;53.568;10.018;2022-12-07T08:35:03;1.60;;;0.90;;
16286;SDS011;8251;53.568;10.018;2022-12-07T08:37:31;2.87;;;1.30;;
16286;SDS011;8251;53.568;10.018;2022-12-07T08:40:02;2.53;;;0.93;;
16286;SDS011;8251;53.568;10.018;2022-12-07T08:42:29;10.80;;;1.33;;
16286;SDS011;8251;53.568;10.018;2022-12-07T08:45:03;5.30;;;1.37;;
16286;SDS011;8251;53.568;10.018;2022-12-07T08:47:31;0.97;;;0.90;;
16286;SDS011;8251;53.568;10.018;2022-12-07T08:50:05;7.93;;;1.77;;
16286;SDS011;8251;53.568;10.018;2022-12-07T08:52:35;2.30;;;1.27;;
16286;SDS011;8251;53.568;10.018;2022-12-07T08:55:09;7.60;;;1.33;;
16286;SDS011;8251;53.568;10.018;2022-12-07T08:57:41;5.17;;;1.03;;
16286;SDS011;8251;53.568;10.018;2022-12-07T09:00:08;3.07;;;1.20;;
16286;SDS011;8251;53.568;10.018;2022-12-07T09:02:37;6.93;;;2.97;;
16286;SDS011;8251;53.568;10.018;2022-12-07T09:05:04;8.23;;;1.73;;
16286;SDS011;8251;53.568;10.018;2022-12-07T09:07:32;4.87;;;1.00;;
16286;SDS011;8251;53.568;10.018;2022-12-07T09:10:00;6.70;;;1.30;;
16286;SDS011;8251;53.568;10.018;2022-12-07T09:12:28;4.23;;;1.30;;
16286;SDS011;8251;53.568;10.018;2022-12-07T09:14:55;3.90;;;1.40;;
16286;SDS011;8251;53.568;10.018;2022-12-07T09:17:22;4.03;;;1.90;;
16286;SDS011;8251;53.568;10.018;2022-12-07T09:19:52;5.00;;;1.83;;
16286;SDS011;8251;53.568;10.018;2022-12-07T09:22:28;5.43;;;1.40;;
16286;SDS011;8251;53.568;10.018;2022-12-07T09:24:59;9.10;;;2.17;;
16286;SDS011;8251;53.568;10.018;2022-12-07T09:27:27;7.23;;;1.47;;
16286;SDS011;8251;53.568;10.018;2022-12-07T09:29:54;4.27;;;1.80;;
16286;SDS011;8251;53.568;10.018;2022-12-07T09:32:22;5.97;;;1.30;;
16286;SDS011;8251;53.568;10.018;2022-12-07T09:34:51;5.50;;;1.60;;
16286;SDS011;8251;53.568;10.018;2022-12-07T09:37:17;4.90;;;1.50;;
16286;SDS011;8251;53.568;10.018;2022-12-07T09:39:46;4.40;;;1.50;;
16286;SDS011;8251;53.568;10.018;2022-12-07T09:42:26;3.13;;;1.43;;
16286;SDS011;8251;53.568;10.018;2022-12-07T09:45:05;5.40;;;1.37;;
16286;SDS011;8251;53.568;10.018;2022-12-07T09:47:34;1.67;;;1.20;;
16286;SDS011;8251;53.568;10.018;2022-12-07T09:50:04;6.97;;;1.63;;
16286;SDS011;8251;53.568;10.018;2022-12-07T09:52:33;5.87;;;1.70;;
16286;SDS011;8251;53.568;10.018;2022-12-07T09:55:01;39.73;;;4.37;;
16286;SDS011;8251;53.568;10.018;2022-12-07T09:57:30;11.03;;;1.73;;
16286;SDS011;8251;53.568;10.018;2022-12-07T10:00:00;18.20;;;2.40;;
16286;SDS011;8251;53.568;10.018;2022-12-07T10:02:34;5.53;;;1.77;;
16286;SDS011;8251;53.568;10.018;2022-12-07T10:05:05;7.57;;;1.37;;
16286;SDS011;8251;53.568;10.018;2022-12-07T10:07:33;9.13;;;2.23;;
16286;SDS011;8251;53.568;10.018;2022-12-07T10:10:02;18.77;;;3.27;;
16286;SDS011;8251;53.568;10.018;2022-12-07T10:12:30;25.57;;;2.80;;
16286;SDS011;8251;53.568;10.018;2022-12-07T10:14:59;6.77;;;2.10;;
16286;SDS011;8251;53.568;10.018;2022-12-07T10:17:29;15.63;;;2.77;;
16286;SDS011;8251;53.568;10.018;2022-12-07T10:22:56;3.60;;;1.70;;
16286;SDS011;8251;53.568;10.018;2022-12-07T10:25:26;4.87;;;1.40;;
16286;SDS011;8251;53.568;10.018;2022-12-07T10:27:58;4.17;;;1.00;;
16286;SDS011;8251;53.568;10.018;2022-12-07T10:30:26;6.33;;;1.30;;
16286;SDS011;8251;53.568;10.018;2022-12-07T10:32:54;8.80;;;2.00;;
16286;SDS011;8251;53.568;10.018;2022-12-07T10:35:36;5.67;;;1.30;;
16286;SDS011;8251;53.568;10.018;2022-12-07T10:38:16;4.30;;;1.03;;
16286;SDS011;8251;53.568;10.018;2022-12-07T10:40:43;8.63;;;2.00;;
16286;SDS011;8251;53.568;10.018;2022-12-07T10:43:16;3.47;;;1.50;;
16286;SDS011;8251;53.568;10.018;2022-12-07T10:45:57;40.23;;;6.93;;
16286;SDS011;8251;53.568;10.018;2022-12-07T10:48:52;14.73;;;3.03;;
16286;SDS011;8251;53.568;10.018;2022-12-07T10:51:32;19.40;;;4.17;;
16286;SDS011;8251;53.568;10.018;2022-12-07T10:54:11;17.43;;;2.30;;
16286;SDS011;8251;53.568;10.018;2022-12-07T10:56:50;7.63;;;1.10;;
16286;SDS011;8251;53.568;10.018;2022-12-07T10:59:41;3.93;;;1.30;;
16286;SDS011;8251;53.568;10.018;2022-12-07T11:02:38;5.87;;;1.20;;
16286;SDS011;8251;53.568;10.018;2022-12-07T11:06:05;4.77;;;1.57;;
16286;SDS011;8251;53.568;10.018;2022-12-07T11:09:00;1.70;;;0.73;;
16286;SDS011;8251;53.568;10.018;2022-12-07T11:11:55;3.87;;;0.80;;
16286;SDS011;8251;53.568;10.018;2022-12-07T11:14:35;4.33;;;1.13;;
16286;SDS011;8251;53.568;10.018;2022-12-07T11:17:16;3.23;;;0.90;;
16286;SDS011;8251;53.568;10.018;2022-12-07T11:20:00;269.27;;;21.37;;
16286;SDS011;8251;53.568;10.018;2022-12-07T11:22:34;17.70;;;3.53;;
16286;SDS011;8251;53.568;10.018;2022-12-07T11:25:20;2.77;;;1.20;;
16286;SDS011;8251;53.568;10.018;2022-12-07T11:28:02;8.30;;;1.17;;
16286;SDS011;8251;53.568;10.018;2022-12-07T11:30:42;68.53;;;6.90;;
16286;SDS011;8251;53.568;10.018;2022-12-07T11:33:19;53.17;;;5.80;;
16286;SDS011;8251;53.568;10.018;2022-12-07T11:35:55;5.57;;;1.23;;
16286;SDS011;8251;53.568;10.018;2022-12-07T11:38:31;7.20;;;1.87;;
16286;SDS011;8251;53.568;10.018;2022-12-07T11:41:09;4.03;;;1.10;;
16286;SDS011;8251;53.568;10.018;2022-12-07T11:46:40;3.53;;;1.10;;
16286;SDS011;8251;53.568;10.018;2022-12-07T11:49:19;6.73;;;2.10;;
16286;SDS011;8251;53.568;10.018;2022-12-07T11:51:52;2.50;;;1.20;;
16286;SDS011;8251;53.568;10.018;2022-12-07T11:54:39;6.50;;;1.63;;
16286;SDS011;8251;53.568;10.018;2022-12-07T11:57:22;7.77;;;1.50;;
16286;SDS011;8251;53.568;10.018;2022-12-07T11:59:59;5.07;;;1.10;;
16286;SDS011;8251;53.568;10.018;2022-12-07T12:02:38;14.13;;;1.70;;
16286;SDS011;8251;53.568;10.018;2022-12-07T12:05:18;3.13;;;0.90;;
16286;SDS011;8251;53.568;10.018;2022-12-07T12:07:48;10.90;;;1.93;;
16286;SDS011;8251;53.568;10.018;2022-12-07T12:10:21;2.40;;;1.23;;
16286;SDS011;8251;53.568;10.018;2022-12-07T12:13:12;1.77;;;1.20;;
16286;SDS011;8251;53.568;10.018;2022-12-07T12:16:10;3.70;;;1.30;;
16286;SDS011;8251;53.568;10.018;2022-12-07T12:18:53;18.47;;;2.17;;
16286;SDS011;8251;53.568;10.018;2022-12-07T12:21:35;4.00;;;1.90;;
16286;SDS011;8251;53.568;10.018;2022-12-07T12:24:05;4.73;;;1.17;;
16286;SDS011;8251;53.568;10.018;2022-12-07T12:29:56;2.47;;;1.20;;
16286;SDS011;8251;53.568;10.018;2022-12-07T12:32:34;4.20;;;1.50;;
16286;SDS011;8251;53.568;10.018;2022-12-07T12:35:21;4.27;;;1.17;;
16286;SDS011;8251;53.568;10.018;2022-12-07T12:38:19;2.67;;;1.60;;
16286;SDS011;8251;53.568;10.018;2022-12-07T12:41:10;7.83;;;1.17;;
16286;SDS011;8251;53.568;10.018;2022-12-07T12:47:55;5.93;;;1.63;;
16286;SDS011;8251;53.568;10.018;2022-12-07T12:50:31;4.77;;;1.30;;
16286;SDS011;8251;53.568;10.018;2022-12-07T12:53:15;8.73;;;1.50;;
16286;SDS011;8251;53.568;10.018;2022-12-07T12:58:46;4.43;;;1.57;;
16286;SDS011;8251;53.568;10.018;2022-12-07T13:10:18;8.63;;;1.70;;
16286;SDS011;8251;53.568;10.018;2022-12-07T13:12:56;7.63;;;1.40;;
16286;SDS011;8251;53.568;10.018;2022-12-07T13:15:36;9.23;;;1.63;;
16286;SDS011;8251;53.568;10.018;2022-12-07T13:21:02;11.70;;;1.80;;
16286;SDS011;8251;53.568;10.018;2022-12-07T13:24:10;7.40;;;1.37;;
16286;SDS011;8251;53.568;10.018;2022-12-07T13:26:39;7.60;;;1.23;;
16286;SDS011;8251;53.568;10.018;2022-12-07T13:29:11;2.27;;;1.40;;
16286;SDS011;8251;53.568;10.018;2022-12-07T13:31:40;7.97;;;1.73;;
16286;SDS011;8251;53.568;10.018;2022-12-07T13:34:29;4.37;;;1.63;;
16286;SDS011;8251;53.568;10.018;2022-12-07T13:36:59;10.57;;;2.43;;
16286;SDS011;8251;53.568;10.018;2022-12-07T13:39:28;2.20;;;1.03;;
16286;SDS011;8251;53.568;10.018;2022-12-07T13:41:55;5.27;;;1.30;;
16286;SDS011;8251;53.568;10.018;2022-12-07T13:44:23;8.77;;;1.17;;
16286;SDS011;8251;53.568;10.018;2022-12-07T13:46:53;3.23;;;1.10;;
16286;SDS011;8251;53.568;10.018;2022-12-07T13:49:26;3.83;;;1.10;;
16286;SDS011;8251;53.568;10.018;2022-12-07T13:52:06;2.03;;;1.10;;
16286;SDS011;8251;53.568;10.018;2022-12-07T13:54:43;5.43;;;1.00;;
16286;SDS011;8251;53.568;10.018;2022-12-07T13:57:11;3.80;;;0.87;;
16286;SDS011;8251;53.568;10.018;2022-12-07T13:59:38;5.17;;;1.10;;
16286;SDS011;8251;53.568;10.018;2022-12-07T14:02:16;5.93;;;0.80;;
16286;SDS011;8251;53.568;10.018;2022-12-07T14:04:46;4.57;;;0.90;;
16286;SDS011;8251;53.568;10.018;2022-12-07T14:07:23;1.63;;;0.70;;
16286;SDS011;8251;53.568;10.018;2022-12-07T14:09:54;3.20;;;0.70;;
16286;SDS011;8251;53.568;10.018;2022-12-07T14:12:23;4.30;;;1.00;;
16286;SDS011;8251;53.568;10.018;2022-12-07T14:14:50;3.00;;;1.00;;
16286;SDS011;8251;53.568;10.018;2022-12-07T14:17:19;1.23;;;0.60;;
16286;SDS011;8251;53.568;10.018;2022-12-07T14:19:49;1.03;;;0.70;;
16286;SDS011;8251;53.568;10.018;2022-12-07T14:22:23;2.37;;;0.70;;
16286;SDS011;8251;53.568;10.018;2022-12-07T14:24:58;1.80;;;0.87;;
16286;SDS011;8251;53.568;10.018;2022-12-07T14:27:29;8.23;;;0.83;;
16286;SDS011;8251;53.568;10.018;2022-12-07T14:29:59;2.27;;;1.07;;
16286;SDS011;8251;53.568;10.018;2022-12-07T14:32:27;4.23;;;0.90;;
16286;SDS011;8251;53.568;10.018;2022-12-07T14:34:56;1.47;;;0.77;;
16286;SDS011;8251;53.568;10.018;2022-12-07T14:37:27;6.13;;;1.20;;
16286;SDS011;8251;53.568;10.018;2022-12-07T14:39:55;4.70;;;0.83;;
16286;SDS011;8251;53.568;10.018;2022-12-07T14:42:22;1.80;;;0.80;;
16286;SDS011;8251;53.568;10.018;2022-12-07T14:44:52;3.60;;;0.83;;
16286;SDS011;8251;53.568;10.018;2022-12-07T14:47:20;5.63;;;1.03;;
16286;SDS011;8251;53.568;10.018;2022-12-07T14:49:47;11.40;;;0.97;;
16286;SDS011;8251;53.568;10.018;2022-12-07T14:52:15;4.67;;;1.07;;
16286;SDS011;8251;53.568;10.018;2022-12-07T14:54:45;2.53;;;1.03;;
16286;SDS011;8251;53.568;10.018;2022-12-07T14:57:13;5.13;;;0.97;;
16286;SDS011;8251;53.568;10.018;2022-12-07T14:59:45;1.47;;;1.00;;
16286;SDS011;8251;53.568;10.018;2022-12-07T15:02:17;5.87;;;1.70;;
16286;SDS011;8251;53.568;10.018;2022-12-07T15:04:44;2.80;;;1.10;;
16286;SDS011;8251;53.568;10.018;2022-12-07T15:07:14;6.80;;;1.27;;
16286;SDS011;8251;53.568;10.018;2022-12-07T15:09:50;9.63;;;1.63;;
16286;SDS011;8251;53.568;10.018;2022-12-07T15:12:17;6.07;;;1.37;;
16286;SDS011;8251;53.568;10.018;2022-12-07T15:14:45;11.20;;;1.53;;
16286;SDS011;8251;53.568;10.018;2022-12-07T15:17:26;32.53;;;14.53;;
16286;SDS011;8251;53.568;10.018;2022-12-07T15:20:02;7.47;;;3.43;;
16286;SDS011;8251;53.568;10.018;2022-12-07T15:22:38;2.30;;;1.33;;
16286;SDS011;8251;53.568;10.018;2022-12-07T15:25:12;5.43;;;1.33;;
16286;SDS011;8251;53.568;10.018;2022-12-07T15:27:39;3.87;;;1.23;;
16286;SDS011;8251;53.568;10.018;2022-12-07T15:30:06;3.43;;;1.20;;
16286;SDS011;8251;53.568;10.018;2022-12-07T15:32:33;3.10;;;1.03;;
16286;SDS011;8251;53.568;10.018;2022-12-07T15:35:01;5.67;;;1.33;;
16286;SDS011;8251;53.568;10.018;2022-12-07T15:37:28;3.70;;;1.03;;
16286;SDS011;8251;53.568;10.018;2022-12-07T15:39:55;3.33;;;1.30;;
16286;SDS011;8251;53.568;10.018;2022-12-07T15:42:23;1.50;;;0.80;;
16286;SDS011;8251;53.568;10.018;2022-12-07T15:44:50;2.90;;;1.00;;